Time;durP1;ratioP1;P1;durP2;ratioP2;P2;SDS_P1;SDS_P2;PMS_P1;PMS_P2;Temp;Humidity;BMP_temperature;BMP_pressure;BME280_temperature;BME280_humidity;BME280_pressure;Samples;Min_cycle;Max_cycle;Signal;HPM_P1;HPM_P2
2022/09/13 00:00:25;;;;;;;10.48;6.35;;;;;;;14.73;71.41;100093.16;4813496;29;97011;-79
2022/09/13 00:02:51;;;;;;;7.45;6.25;;;;;;;14.58;71.38;100064.00;4840704;29;98027;-83
2022/09/13 00:05:16;;;;;;;10.50;6.85;;;;;;;14.65;71.44;100090.94;4822212;29;101297;-79
2022/09/13 00:07:42;;;;;;;11.45;6.25;;;;;;;14.67;71.53;100089.91;4829436;29;97212;-79
2022/09/13 00:10:07;;;;;;;9.95;6.53;;;;;;;14.81;71.56;100089.16;4839747;29;96882;-79
2022/09/13 00:12:33;;;;;;;9.05;6.43;;;;;;;14.55;72.36;100087.97;4824782;29;100910;-79
2022/09/13 00:14:58;;;;;;;10.90;7.50;;;;;;;14.52;72.56;100082.00;4822747;29;101248;-79
2022/09/13 00:17:25;;;;;;;9.85;6.88;;;;;;;14.37;73.34;100079.22;4825654;29;97143;-79
2022/09/13 00:19:50;;;;;;;10.35;7.25;;;;;;;14.50;73.29;100082.88;4823290;29;96894;-84
2022/09/13 00:22:15;;;;;;;9.32;6.65;;;;;;;14.41;73.26;100079.88;4821993;29;101269;-79
2022/09/13 00:24:41;;;;;;;12.20;6.72;;;;;;;14.39;73.19;100090.50;4818560;29;100944;-79
2022/09/13 00:27:07;;;;;;;8.95;6.40;;;;;;;14.32;73.46;100080.38;4821849;29;97448;-79
2022/09/13 00:29:32;;;;;;;8.77;6.28;;;;;;;14.34;73.26;100073.22;4852600;28;97605;-80
2022/09/13 00:31:57;;;;;;;12.00;6.85;;;;;;;14.40;72.79;100071.13;4810321;29;101105;-79
2022/09/13 00:34:23;;;;;;;8.43;6.03;;;;;;;14.49;72.19;100077.69;4840135;29;100463;-79
2022/09/13 00:36:48;;;;;;;10.07;6.05;;;;;;;14.40;72.14;100068.47;4806991;29;96875;-79
2022/09/13 00:39:14;;;;;;;10.93;5.93;;;;;;;14.33;72.27;100048.59;4839502;28;96899;-81
2022/09/13 00:41:39;;;;;;;10.63;6.78;;;;;;;14.43;72.07;100070.09;4821382;28;101639;-79
2022/09/13 00:44:43;;;;;;;8.40;6.07;;;;;;;14.43;71.99;100070.94;4842386;29;97628;-83
2022/09/13 00:47:09;;;;;;;7.85;6.10;;;;;;;14.32;72.70;100062.75;4834927;28;96764;-80
2022/09/13 00:49:38;;;;;;;9.00;6.35;;;;;;;14.31;72.42;100050.50;4812913;29;97940;-79
2022/09/13 00:52:07;;;;;;;10.63;6.55;;;;;;;14.36;71.98;100055.50;4826470;29;101449;-80
2022/09/13 00:54:42;;;;;;;8.45;6.47;;;;;;;14.35;71.90;100052.03;4838904;29;97941;-79
2022/09/13 00:57:09;;;;;;;8.80;5.70;;;;;;;14.29;71.74;100049.72;4825682;29;98397;-81
2022/09/13 00:59:53;;;;;;;9.48;5.85;;;;;;;14.32;71.34;100052.19;4825625;29;96994;-79
2022/09/13 01:02:19;;;;;;;8.50;6.22;;;;;;;14.29;71.99;100059.44;4821837;29;101450;-79
2022/09/13 01:04:45;;;;;;;7.50;5.72;;;;;;;14.30;71.76;100056.69;4824707;29;101314;-79
2022/09/13 01:07:12;;;;;;;9.43;5.68;;;;;;;14.21;71.57;100058.03;4821087;29;97186;-79
2022/09/13 01:09:40;;;;;;;14.43;6.10;;;;;;;14.19;71.99;100051.97;4816239;29;97212;-80
2022/09/13 01:12:20;;;;;;;7.60;5.20;;;;;;;14.21;71.57;100052.75;4830192;28;101387;-79
2022/09/13 01:14:46;;;;;;;7.68;5.80;;;;;;;14.01;71.67;100027.41;4841790;28;101232;-79
2022/09/13 01:17:12;;;;;;;9.05;6.07;;;;;;;14.10;71.74;100052.47;4836439;29;97246;-79
2022/09/13 01:19:37;;;;;;;12.75;5.95;;;;;;;14.16;71.31;100051.28;4857378;28;97120;-79
2022/09/13 01:22:12;;;;;;;8.07;5.90;;;;;;;14.11;71.92;100048.03;4843117;28;97553;-80
2022/09/13 01:24:46;;;;;;;8.38;6.22;;;;;;;14.09;71.38;100053.41;4838431;28;101266;-79
2022/09/13 01:27:21;;;;;;;9.27;6.25;;;;;;;14.05;71.49;100046.59;4874151;28;96713;-79
2022/09/13 01:30:08;;;;;;;8.88;6.63;;;;;;;13.99;72.00;100042.50;4860714;28;97748;-79
2022/09/13 01:32:45;;;;;;;9.00;6.18;;;;;;;13.97;72.32;100043.50;4859289;28;101787;-78
2022/09/13 01:35:29;;;;;;;8.82;5.82;;;;;;;13.96;72.36;100041.78;4846550;28;97952;-80
2022/09/13 01:38:50;;;;;;;7.88;6.10;;;;;;;13.89;72.17;100035.13;4858365;28;96723;-80
2022/09/13 01:41:34;;;;;;;10.93;6.30;;;;;;;13.80;72.39;100031.19;4797984;29;97984;-80
2022/09/13 01:44:11;;;;;;;10.98;6.40;;;;;;;13.87;72.58;100034.34;4846996;28;100388;-79
2022/09/13 01:47:11;;;;;;;9.38;6.07;;;;;;;13.81;72.02;100025.81;4848226;28;101097;-79
2022/09/13 01:49:50;;;;;;;9.45;6.05;;;;;;;13.81;72.57;100031.09;4859152;28;96958;-79
2022/09/13 01:52:24;;;;;;;9.18;6.65;;;;;;;13.85;72.15;100023.03;4858968;28;96732;-79
2022/09/13 01:55:22;;;;;;;7.13;5.57;;;;;;;13.78;72.17;100015.41;4842561;28;100047;-79
2022/09/13 01:57:59;;;;;;;9.55;6.28;;;;;;;13.50;72.28;99989.63;4876606;28;97708;-82
2022/09/13 02:00:26;;;;;;;7.97;6.55;;;;;;;13.56;72.57;99988.47;4858228;28;96760;-79
2022/09/13 02:03:06;;;;;;;8.90;6.00;;;;;;;13.59;72.25;99989.16;4841769;29;97003;-82
2022/09/13 02:06:07;;;;;;;8.65;6.53;;;;;;;13.69;72.41;100001.88;4855697;28;98729;-79
2022/09/13 02:08:56;;;;;;;10.02;5.68;;;;;;;13.70;72.24;99999.16;4839087;28;99832;-80
2022/09/13 02:11:22;;;;;;;8.50;6.32;;;;;;;13.59;72.34;99988.31;4857017;28;97926;-79
2022/09/13 02:13:54;;;;;;;7.57;6.45;;;;;;;13.59;72.31;99983.03;4853674;28;97261;-79
2022/09/13 02:16:28;;;;;;;8.95;6.32;;;;;;;13.70;71.73;99975.44;4840835;28;101212;-79
2022/09/13 02:18:58;;;;;;;8.05;5.88;;;;;;;13.58;71.97;99974.28;4866797;28;98149;-84
2022/09/13 02:21:33;;;;;;;7.95;6.20;;;;;;;13.55;72.36;99982.31;4847840;28;96962;-79
2022/09/13 02:24:18;;;;;;;9.82;5.78;;;;;;;13.59;71.89;99975.13;4827835;28;96853;-79
2022/09/13 02:26:45;;;;;;;9.02;6.70;;;;;;;13.54;72.04;99966.59;4845099;28;101057;-79
2022/09/13 02:29:15;;;;;;;12.70;5.85;;;;;;;13.55;72.58;99976.19;4864205;28;98007;-79
2022/09/13 02:31:57;;;;;;;7.65;5.65;;;;;;;13.54;72.11;99972.72;4848494;28;97986;-79
2022/09/13 02:34:52;;;;;;;7.63;5.70;;;;;;;13.53;72.50;99976.28;4841489;28;97117;-81
2022/09/13 02:37:18;;;;;;;7.85;5.30;;;;;;;13.48;72.42;99964.28;4864698;28;98098;-79
2022/09/13 02:39:48;;;;;;;9.00;6.03;;;;;;;13.32;72.30;99949.25;4848788;28;97419;-80
2022/09/13 02:42:19;;;;;;;12.65;5.80;;;;;;;13.41;72.43;99949.69;4862404;28;96776;-81
2022/09/13 02:44:53;;;;;;;8.52;5.78;;;;;;;13.41;72.39;99960.25;4833929;28;97031;-79
2022/09/13 02:47:27;;;;;;;8.93;6.30;;;;;;;13.38;72.64;99965.66;4862543;28;101128;-79
2022/09/13 02:50:17;;;;;;;14.20;5.82;;;;;;;13.32;72.30;99964.19;4858623;28;101376;-80
2022/09/13 02:52:49;;;;;;;7.55;5.65;;;;;;;13.26;72.83;99957.44;4829842;29;96875;-80
2022/09/13 02:55:34;;;;;;;12.25;6.70;;;;;;;13.27;72.76;99951.28;4875058;28;97202;-79
2022/09/13 02:58:08;;;;;;;9.32;5.60;;;;;;;13.28;72.44;99950.34;4833833;28;100933;-79
2022/09/13 03:00:33;;;;;;;9.25;6.57;;;;;;;13.19;72.64;99934.97;4836522;28;101668;-80
2022/09/13 03:03:03;;;;;;;9.65;7.20;;;;;;;13.18;72.65;99938.53;4846411;28;96892;-79
2022/09/13 03:05:28;;;;;;;9.57;6.03;;;;;;;13.13;72.92;99937.91;4831078;28;97250;-79
2022/09/13 03:07:54;;;;;;;8.23;6.15;;;;;;;13.11;73.14;99939.75;4844458;28;101627;-83
2022/09/13 03:10:22;;;;;;;7.95;6.03;;;;;;;13.08;72.92;99929.38;4827779;28;101386;-79
2022/09/13 03:13:09;;;;;;;8.73;5.82;;;;;;;13.18;72.42;99933.25;4867421;28;97111;-79
2022/09/13 03:15:44;;;;;;;9.27;6.18;;;;;;;13.22;72.47;99931.31;4841251;28;96745;-79
2022/09/13 03:18:34;;;;;;;8.65;5.63;;;;;;;13.22;72.33;99931.31;4847573;28;101804;-80
2022/09/13 03:21:30;;;;;;;11.90;6.10;;;;;;;12.90;73.29;99904.81;4856789;28;101754;-80
2022/09/13 03:24:14;;;;;;;9.30;5.72;;;;;;;13.08;72.76;99921.47;4856255;28;97764;-82
2022/09/13 03:26:40;;;;;;;8.15;6.15;;;;;;;13.05;72.85;99911.09;4843043;28;97882;-81
2022/09/13 03:29:30;;;;;;;9.00;6.22;;;;;;;13.04;72.92;99912.88;4845024;28;101251;-79
2022/09/13 03:32:14;;;;;;;9.25;5.72;;;;;;;13.08;72.13;99911.78;4882417;28;98406;-80
2022/09/13 03:35:01;;;;;;;11.32;6.43;;;;;;;13.04;72.70;99904.97;4848256;28;96734;-79
2022/09/13 03:37:35;;;;;;;8.80;6.05;;;;;;;13.04;72.59;99898.84;4819814;28;96749;-79
2022/09/13 03:40:13;;;;;;;9.05;6.03;;;;;;;12.91;72.87;99875.78;4855153;29;97837;-80
2022/09/13 03:42:51;;;;;;;9.88;6.50;;;;;;;13.04;72.51;99894.44;4840642;28;101129;-81
2022/09/13 03:45:20;;;;;;;11.90;5.72;;;;;;;13.00;72.88;99886.75;4849469;28;97138;-79
2022/09/13 03:47:46;;;;;;;10.98;6.30;;;;;;;12.97;72.79;99893.03;4829185;28;97062;-79
2022/09/13 03:50:16;;;;;;;10.05;6.00;;;;;;;13.00;72.84;99892.00;4851367;28;100970;-79
2022/09/13 03:52:42;;;;;;;6.88;5.68;;;;;;;12.85;73.43;99881.31;4866510;28;97463;-81
2022/09/13 03:55:08;;;;;;;9.43;5.97;;;;;;;12.96;72.92;99890.47;4848090;28;97203;-79
2022/09/13 03:57:33;;;;;;;8.35;5.65;;;;;;;12.79;72.90;99857.09;4860528;28;97327;-79
2022/09/13 03:59:59;;;;;;;8.02;5.68;;;;;;;13.00;72.55;99892.91;4858645;28;97522;-83
2022/09/13 04:02:25;;;;;;;8.30;5.90;;;;;;;13.03;72.29;99892.72;4875280;28;101157;-79
2022/09/13 04:04:51;;;;;;;11.68;5.75;;;;;;;12.99;72.57;99892.97;4843754;28;97000;-79
2022/09/13 04:07:22;;;;;;;13.40;6.45;;;;;;;13.00;72.64;99886.75;4854443;28;97267;-79
2022/09/13 04:09:47;;;;;;;8.77;6.53;;;;;;;12.93;72.80;99888.84;4839615;29;100939;-79
2022/09/13 04:12:14;;;;;;;10.98;6.53;;;;;;;12.86;72.81;99879.56;4873046;28;97831;-79
2022/09/13 04:14:40;;;;;;;12.95;6.10;;;;;;;12.89;72.71;99887.31;4844346;28;96722;-80
2022/09/13 04:17:06;;;;;;;10.10;5.93;;;;;;;12.88;72.68;99882.94;4871201;28;99556;-79
2022/09/13 04:19:32;;;;;;;11.50;6.18;;;;;;;12.83;72.81;99877.94;4831739;28;100011;-80
2022/09/13 04:21:58;;;;;;;12.20;6.20;;;;;;;12.92;73.12;99887.16;4859987;28;98114;-78
2022/09/13 04:24:25;;;;;;;16.92;6.40;;;;;;;12.91;72.73;99885.44;4853555;28;96892;-79
2022/09/13 04:26:52;;;;;;;13.70;6.53;;;;;;;12.85;72.64;99870.78;4841096;29;96852;-79
2022/09/13 04:29:18;;;;;;;10.75;6.38;;;;;;;12.95;72.75;99889.63;4843342;28;101776;-78
2022/09/13 04:31:44;;;;;;;11.65;6.63;;;;;;;12.82;73.16;99884.09;4825641;29;101290;-79
2022/09/13 04:34:10;;;;;;;9.85;5.88;;;;;;;12.82;73.07;99875.38;4854916;28;96994;-79
2022/09/13 04:36:36;;;;;;;10.60;6.05;;;;;;;12.95;72.89;99888.78;4844408;28;97384;-79
2022/09/13 04:39:02;;;;;;;12.90;6.00;;;;;;;12.97;73.50;99881.63;4843442;28;97506;-83
2022/09/13 04:41:30;;;;;;;12.52;6.05;;;;;;;12.89;72.53;99871.50;4827213;28;96867;-78
2022/09/13 04:43:56;;;;;;;13.00;6.35;;;;;;;12.98;72.87;99886.84;4843017;28;96868;-79
2022/09/13 04:46:21;;;;;;;6.82;5.65;;;;;;;13.06;72.80;99876.78;4840641;28;98031;-79
2022/09/13 04:48:48;;;;;;;10.85;5.97;;;;;;;13.16;72.58;99890.31;4833072;28;101372;-79
2022/09/13 04:51:14;;;;;;;9.43;6.00;;;;;;;13.06;72.90;99882.03;4834842;29;101900;-81
2022/09/13 04:53:39;;;;;;;8.32;5.95;;;;;;;13.29;72.32;99883.53;4828705;28;99931;-79
2022/09/13 04:56:06;;;;;;;9.10;5.65;;;;;;;13.26;72.68;99883.66;4854713;28;96755;-80
2022/09/13 04:58:32;;;;;;;9.85;5.80;;;;;;;13.31;72.17;99886.06;4846905;28;101680;-80
2022/09/13 05:01:05;;;;;;;7.88;5.43;;;;;;;13.19;72.84;99890.16;4833394;28;101410;-79
2022/09/13 05:03:32;;;;;;;8.20;5.47;;;;;;;13.37;71.93;99891.00;4853974;28;97189;-79
2022/09/13 05:06:06;;;;;;;8.75;5.60;;;;;;;13.30;72.62;99894.91;4849126;28;96854;-82
2022/09/13 05:08:32;;;;;;;8.40;6.78;;;;;;;13.35;72.02;99883.19;4846572;28;101204;-82
2022/09/13 05:10:58;;;;;;;9.75;6.13;;;;;;;13.32;72.40;99866.66;4839166;28;101683;-81
2022/09/13 05:13:24;;;;;;;11.05;5.78;;;;;;;13.54;72.44;99887.50;4841359;29;97027;-81
2022/09/13 05:15:56;;;;;;;9.68;6.07;;;;;;;13.57;72.11;99889.97;4841796;28;97042;-84
2022/09/13 05:18:25;;;;;;;7.43;5.38;;;;;;;13.52;71.82;99887.56;4810657;29;100979;-83
2022/09/13 05:20:53;;;;;;;7.85;4.97;;;;;;;13.48;72.21;99888.66;4802090;29;100913;-84
2022/09/13 05:23:18;;;;;;;9.75;5.40;;;;;;;13.61;72.26;99883.59;4833676;28;96955;-83
2022/09/13 05:25:44;;;;;;;11.55;5.78;;;;;;;13.82;71.47;99886.88;4833405;28;97244;-84
2022/09/13 05:28:10;;;;;;;9.82;6.47;;;;;;;14.04;71.05;99874.19;4843686;28;101950;-83
2022/09/13 05:30:36;;;;;;;9.48;5.53;;;;;;;14.13;71.02;99874.63;4836722;28;101232;-84
2022/09/13 05:33:02;;;;;;;9.25;5.28;;;;;;;14.24;69.73;99872.22;4814086;29;97329;-82
2022/09/13 05:35:28;;;;;;;11.48;5.05;;;;;;;14.21;70.05;99865.31;4831145;29;97378;-82
2022/09/13 05:37:54;;;;;;;8.43;5.57;;;;;;;14.39;70.07;99860.78;4817366;29;101199;-82
2022/09/13 05:40:19;;;;;;;11.77;5.57;;;;;;;14.42;70.08;99875.63;4835874;29;97869;-82
2022/09/13 05:42:45;;;;;;;7.55;5.68;;;;;;;14.23;70.09;99855.53;4821044;29;97917;-83
2022/09/13 05:45:11;;;;;;;7.50;5.85;;;;;;;14.37;69.86;99867.09;4822678;29;97101;-82
2022/09/13 05:47:37;;;;;;;6.82;5.38;;;;;;;14.36;69.82;99873.31;4821375;29;97450;-82
2022/09/13 05:50:02;;;;;;;5.75;4.43;;;;;;;14.33;70.42;99855.03;4828823;29;101245;-80
2022/09/13 05:52:28;;;;;;;8.85;4.50;;;;;;;14.51;70.42;99861.88;4833036;29;96882;-82
2022/09/13 05:54:53;;;;;;;7.97;5.20;;;;;;;14.67;69.94;99854.81;4825031;29;97249;-81
2022/09/13 05:57:18;;;;;;;8.20;4.88;;;;;;;14.76;70.00;99855.22;4799763;29;101053;-82
2022/09/13 05:59:44;;;;;;;5.65;4.47;;;;;;;14.92;69.20;99856.88;4816717;28;101516;-82
2022/09/13 06:02:09;;;;;;;7.28;4.68;;;;;;;15.16;68.37;99856.34;4833140;29;98172;-82
2022/09/13 06:04:35;;;;;;;6.72;4.50;;;;;;;15.41;67.93;99853.03;4806168;28;96920;-82
2022/09/13 06:07:01;;;;;;;5.85;3.90;;;;;;;15.48;66.52;99843.81;4838494;28;102534;-82
2022/09/13 06:09:26;;;;;;;12.57;4.43;;;;;;;15.49;67.15;99844.66;4840717;28;98191;-82
2022/09/13 06:11:52;;;;;;;6.10;4.75;;;;;;;15.60;66.89;99832.44;4828119;28;98541;-82
2022/09/13 06:14:18;;;;;;;5.32;4.13;;;;;;;15.55;66.44;99799.28;4837793;28;98329;-82
2022/09/13 06:16:43;;;;;;;7.22;4.18;;;;;;;15.85;66.41;99828.28;4844441;28;101770;-81
2022/09/13 06:19:09;;;;;;;4.53;3.88;;;;;;;16.08;65.51;99826.81;4825806;29;101327;-81
2022/09/13 06:21:34;;;;;;;5.90;4.20;;;;;;;16.43;64.93;99826.31;4829099;28;97255;-82
2022/09/13 06:24:00;;;;;;;6.07;4.30;;;;;;;16.76;64.25;99825.91;4843280;28;97236;-81
2022/09/13 06:26:27;;;;;;;5.55;3.95;;;;;;;17.16;62.08;99815.19;4870549;28;97948;-81
2022/09/13 06:28:55;;;;;;;8.82;3.97;;;;;;;17.62;61.62;99804.00;4841923;28;100804;-81
2022/09/13 06:31:23;;;;;;;5.53;4.53;;;;;;;17.80;60.78;99800.09;4852156;28;99888;-81
2022/09/13 06:33:53;;;;;;;8.20;4.15;;;;;;;18.00;60.96;99806.56;4856249;28;96985;-81
2022/09/13 06:36:19;;;;;;;7.47;3.83;;;;;;;17.94;60.52;99795.56;4843481;28;97396;-81
2022/09/13 06:38:47;;;;;;;8.15;4.65;;;;;;;17.65;61.65;99801.13;4861010;28;97609;-82
2022/09/13 06:41:17;;;;;;;5.50;4.38;;;;;;;17.58;61.53;99778.66;4844824;28;96841;-84
2022/09/13 06:43:43;;;;;;;9.70;3.90;;;;;;;18.09;59.85;99789.13;4841543;28;97271;-81
2022/09/13 06:46:14;;;;;;;8.82;3.90;;;;;;;18.44;59.46;99767.94;4834961;28;101571;-83
2022/09/13 06:48:42;;;;;;;5.70;3.60;;;;;;;19.28;57.71;99786.34;4832225;28;101937;-81
2022/09/13 06:51:10;;;;;;;5.05;3.90;;;;;;;19.70;56.41;99782.13;4828249;28;97273;-80
2022/09/13 06:53:37;;;;;;;5.22;3.92;;;;;;;20.34;54.80;99773.34;4828234;28;97348;-80
2022/09/13 06:56:08;;;;;;;4.63;3.80;;;;;;;20.56;53.50;99785.72;4844200;28;101487;-80
2022/09/13 06:58:35;;;;;;;8.75;3.70;;;;;;;20.87;52.96;99789.31;4862508;28;97807;-80
2022/09/13 07:01:15;;;;;;;6.25;4.05;;;;;;;20.57;53.06;99790.09;4838851;29;96728;-79
2022/09/13 07:03:42;;;;;;;6.57;3.60;;;;;;;20.97;51.84;99794.69;4857534;28;96878;-79
2022/09/13 07:06:11;;;;;;;4.45;4.05;;;;;;;21.72;50.94;99785.50;4840818;28;101061;-83
2022/09/13 07:08:37;;;;;;;6.68;4.00;;;;;;;21.13;52.64;99788.91;4870544;28;97443;-81
2022/09/13 07:11:03;;;;;;;5.10;3.30;;;;;;;20.58;53.97;99786.44;4844434;28;97028;-80
2022/09/13 07:13:29;;;;;;;6.50;3.63;;;;;;;19.97;54.93;99788.84;4832891;28;97164;-79
2022/09/13 07:15:55;;;;;;;8.32;4.03;;;;;;;19.57;56.63;99787.53;4857192;28;97447;-80
2022/09/13 07:18:20;;;;;;;5.22;3.63;;;;;;;19.41;56.85;99789.75;4841499;28;97464;-80
2022/09/13 07:20:46;;;;;;;9.70;3.80;;;;;;;19.20;57.07;99782.47;4838383;28;96767;-80
2022/09/13 07:23:11;;;;;;;7.82;4.05;;;;;;;18.96;57.65;99785.22;4849576;28;97380;-81
2022/09/13 07:25:37;;;;;;;5.65;3.22;;;;;;;18.57;58.71;99767.84;4837585;28;98078;-80
2022/09/13 07:28:02;;;;;;;4.28;3.20;;;;;;;18.97;58.50;99778.09;4836662;28;100219;-80
2022/09/13 07:30:28;;;;;;;4.57;3.75;;;;;;;19.22;58.53;99772.53;4829699;29;96834;-80
2022/09/13 07:32:53;;;;;;;5.57;3.67;;;;;;;19.35;57.99;99777.75;4841298;28;97320;-80
2022/09/13 07:35:19;;;;;;;5.88;3.40;;;;;;;21.07;54.33;99779.59;4834935;29;97806;-80
2022/09/13 07:37:45;;;;;;;3.97;3.00;;;;;;;21.58;53.42;99781.38;4873669;28;97586;-80
2022/09/13 07:40:11;;;;;;;5.15;3.03;;;;;;;21.01;54.45;99780.97;4823472;28;98113;-80
2022/09/13 07:42:36;;;;;;;3.33;2.95;;;;;;;20.76;54.45;99792.88;4843429;28;98105;-82
2022/09/13 07:45:02;;;;;;;6.03;3.20;;;;;;;21.02;54.67;99784.47;4864037;28;97511;-82
2022/09/13 07:47:27;;;;;;;5.55;3.85;;;;;;;20.69;54.87;99782.88;4881285;28;97548;-80
2022/09/13 07:49:53;;;;;;;4.00;3.10;;;;;;;20.55;55.39;99784.88;4839970;28;98045;-80
2022/09/13 07:52:18;;;;;;;3.88;3.38;;;;;;;20.72;54.98;99788.81;4854107;28;98781;-80
2022/09/13 07:54:44;;;;;;;4.03;3.28;;;;;;;21.27;53.74;99783.22;4849974;28;97799;-82
2022/09/13 07:57:09;;;;;;;5.05;3.20;;;;;;;21.75;53.35;99782.56;4833169;28;102172;-80
2022/09/13 07:59:35;;;;;;;3.63;3.10;;;;;;;21.44;54.27;99787.13;4838875;28;97773;-82
2022/09/13 08:02:01;;;;;;;7.05;3.15;;;;;;;21.51;54.04;99785.59;4844308;28;96909;-79
2022/09/13 08:04:26;;;;;;;5.03;3.15;;;;;;;22.99;50.46;99775.72;4828162;28;101514;-81
2022/09/13 08:06:52;;;;;;;5.65;3.30;;;;;;;24.17;49.18;99770.50;4829797;28;99765;-83
2022/09/13 08:09:20;;;;;;;8.52;3.30;;;;;;;25.04;46.61;99765.31;4843065;28;97393;-85
2022/09/13 08:11:51;;;;;;;7.40;3.17;;;;;;;25.42;45.98;99755.97;4845524;28;98713;-83
2022/09/13 08:14:18;;;;;;;6.15;3.00;;;;;;;26.41;43.28;99740.91;4838870;28;97502;-81
2022/09/13 08:16:44;;;;;;;6.03;2.88;;;;;;;27.67;41.12;99743.00;4827279;28;101609;-80
2022/09/13 08:19:12;;;;;;;7.40;2.85;;;;;;;28.62;39.00;99750.78;4852342;28;96866;-81
2022/09/13 08:21:39;;;;;;;3.20;2.90;;;;;;;29.09;37.38;99749.69;4857500;28;97865;-82
2022/09/13 08:24:07;;;;;;;3.95;2.88;;;;;;;29.41;36.87;99744.91;4847249;28;101338;-82
2022/09/13 08:26:35;;;;;;;4.78;2.80;;;;;;;30.38;36.13;99736.47;4822439;28;97289;-81
2022/09/13 08:29:03;;;;;;;5.53;2.33;;;;;;;31.44;35.00;99723.66;4836585;28;96994;-82
2022/09/13 08:31:30;;;;;;;3.45;2.58;;;;;;;32.40;33.58;99739.75;4843807;28;96959;-81
2022/09/13 08:33:57;;;;;;;3.97;2.58;;;;;;;33.17;32.62;99725.75;4831482;28;98100;-81
2022/09/13 08:36:24;;;;;;;3.28;2.47;;;;;;;33.48;31.74;99727.69;4819794;28;101256;-82
2022/09/13 08:38:51;;;;;;;6.80;2.35;;;;;;;34.23;31.50;99723.34;4831506;28;96933;-81
2022/09/13 08:41:36;;;;;;;4.28;2.38;;;;;;;34.15;30.76;99720.91;4849145;28;96908;-83
2022/09/13 08:44:02;;;;;;;3.90;2.40;;;;;;;34.33;30.26;99720.13;4871327;28;101470;-81
2022/09/13 08:46:33;;;;;;;5.72;2.47;;;;;;;34.01;30.43;99709.25;4856941;28;97897;-82
2022/09/13 08:49:34;;;;;;;3.80;2.53;;;;;;;33.30;30.95;99715.63;4837828;28;96736;-81
2022/09/13 08:52:15;;;;;;;2.90;1.95;;;;;;;33.17;31.60;99698.56;4861207;28;96919;-83
2022/09/13 08:54:41;;;;;;;3.35;2.10;;;;;;;32.97;32.22;99717.59;4854304;28;101559;-83
2022/09/13 08:57:19;;;;;;;2.08;1.90;;;;;;;33.74;31.58;99718.59;4832689;28;101185;-82
2022/09/13 09:00:32;;;;;;;2.90;2.17;;;;;;;33.64;30.12;99715.53;4855143;29;96905;-84
2022/09/13 09:03:04;;;;;;;4.70;2.10;;;;;;;33.91;30.38;99713.47;4848396;28;97158;-84
2022/09/13 09:05:32;;;;;;;2.05;1.83;;;;;;;34.06;29.30;99705.03;4848100;28;101474;-84
2022/09/13 09:07:59;;;;;;;3.97;2.00;;;;;;;34.40;29.92;99699.13;4857649;28;100879;-83
2022/09/13 09:10:28;;;;;;;2.42;1.80;;;;;;;34.31;30.73;99702.34;4844463;28;96911;-84
2022/09/13 09:12:54;;;;;;;8.02;1.80;;;;;;;33.51;30.91;99706.41;4845481;29;97513;-84
2022/09/13 09:15:31;;;;;;;3.75;2.00;;;;;;;33.19;30.35;99686.38;4857208;28;101593;-84
2022/09/13 09:18:12;;;;;;;8.57;2.42;;;;;;;34.03;28.89;99679.94;4839239;28;101727;-84
2022/09/13 09:20:48;;;;;;;2.60;1.98;;;;;;;33.31;30.34;99679.25;4858566;28;96795;-86
2022/09/13 09:23:32;;;;;;;2.70;1.98;;;;;;;32.30;31.57;99678.78;4847695;28;97380;-85
2022/09/13 09:26:14;;;;;;;3.60;1.92;;;;;;;31.47;32.45;99650.03;4857395;28;101307;-82
2022/09/13 09:28:40;;;;;;;2.28;1.60;;;;;;;30.28;34.68;99671.81;4852108;28;97865;-81
2022/09/13 09:31:15;;;;;;;6.45;1.90;;;;;;;29.54;37.18;99674.78;4821818;28;100635;-81
2022/09/13 09:34:06;;;;;;;3.78;2.10;;;;;;;28.44;36.61;99676.38;4827668;28;97193;-81
2022/09/13 09:36:52;;;;;;;2.38;1.80;;;;;;;27.85;37.58;99664.56;4835958;28;97754;-83
2022/09/13 09:39:18;;;;;;;4.50;1.80;;;;;;;27.22;39.90;99678.03;4836225;28;101415;-83
2022/09/13 09:41:44;;;;;;;4.40;1.90;;;;;;;27.13;38.68;99672.81;4864681;28;96786;-82
2022/09/13 09:44:17;;;;;;;3.20;1.75;;;;;;;26.67;39.32;99670.78;4842102;28;96785;-83
2022/09/13 09:46:49;;;;;;;2.53;2.00;;;;;;;26.62;40.23;99670.47;4842356;28;99194;-83
2022/09/13 09:51:59;;;;;;;5.50;1.88;;;;;;;25.97;42.05;99644.41;4881762;28;96735;-83
2022/09/13 09:54:26;;;;;;;2.50;1.85;;;;;;;25.86;42.60;99634.84;4849249;28;97323;-83
2022/09/13 09:56:54;;;;;;;4.50;1.90;;;;;;;26.02;41.89;99663.59;4838528;28;97625;-84
2022/09/13 09:59:31;;;;;;;3.35;1.90;;;;;;;25.83;42.10;99653.16;4834752;28;100917;-83
2022/09/13 10:01:57;;;;;;;5.25;1.90;;;;;;;25.63;43.10;99639.19;4858284;28;98127;-82
2022/09/13 10:04:24;;;;;;;3.85;2.25;;;;;;;25.42;43.62;99647.66;4846237;28;97437;-82
2022/09/13 10:06:50;;;;;;;2.78;2.22;;;;;;;24.92;44.30;99643.94;4848979;28;101855;-83
2022/09/13 10:09:18;;;;;;;4.57;2.13;;;;;;;24.91;45.45;99654.84;4828862;28;101564;-83
2022/09/13 10:11:48;;;;;;;2.50;2.10;;;;;;;24.62;45.03;99640.78;4861885;28;97496;-82
2022/09/13 10:14:33;;;;;;;4.72;2.20;;;;;;;24.36;45.05;99637.22;4849437;29;97006;-82
2022/09/13 10:17:04;;;;;;;4.72;2.63;;;;;;;24.16;45.06;99637.41;4860480;28;101480;-83
2022/09/13 10:19:31;;;;;;;4.65;2.25;;;;;;;23.93;45.38;99622.81;4851239;28;97816;-83
2022/09/13 10:22:05;;;;;;;1.90;1.70;;;;;;;23.89;45.97;99635.69;4830297;28;97252;-82
2022/09/13 10:24:32;;;;;;;4.60;2.10;;;;;;;23.65;46.26;99619.34;4834971;28;97395;-83
2022/09/13 10:26:58;;;;;;;4.65;2.40;;;;;;;23.44;46.95;99599.06;4842610;28;101249;-82
2022/09/13 10:29:26;;;;;;;4.95;2.28;;;;;;;23.37;47.12;99621.28;4846116;28;101280;-82
2022/09/13 10:31:57;;;;;;;4.45;3.00;;;;;;;23.30;47.20;99618.38;4841836;28;98052;-82
2022/09/13 10:34:26;;;;;;;5.35;2.10;;;;;;;23.09;47.58;99623.97;4827205;28;97300;-82
2022/09/13 10:36:56;;;;;;;2.92;2.47;;;;;;;23.10;47.97;99614.97;4841737;28;101254;-82
2022/09/13 10:39:22;;;;;;;8.45;2.30;;;;;;;23.19;47.80;99618.56;4846205;28;98099;-82
2022/09/13 10:42:01;;;;;;;6.45;2.50;;;;;;;23.17;47.14;99613.34;4845684;28;96803;-82
2022/09/13 10:44:39;;;;;;;5.20;3.28;;;;;;;23.22;47.73;99610.25;4846642;28;98032;-82
2022/09/13 10:47:10;;;;;;;3.63;2.40;;;;;;;23.39;47.45;99619.28;4842441;28;100966;-82
2022/09/13 10:49:43;;;;;;;4.47;2.33;;;;;;;23.61;47.16;99618.81;4844173;29;101002;-82
2022/09/13 10:52:25;;;;;;;3.03;2.50;;;;;;;23.84;47.28;99602.31;4858181;28;97236;-81
2022/09/13 10:54:52;;;;;;;7.88;2.40;;;;;;;23.92;47.21;99584.47;4834060;28;97301;-81
2022/09/13 10:57:50;;;;;;;2.80;2.05;;;;;;;24.03;47.32;99604.84;4841153;28;98413;-80
2022/09/13 11:00:19;;;;;;;5.03;2.40;;;;;;;24.11;47.10;99610.22;4851087;28;97469;-80
2022/09/13 11:03:06;;;;;;;3.38;2.10;;;;;;;23.93;47.20;99606.75;4861809;28;96867;-80
2022/09/13 11:05:46;;;;;;;3.33;2.60;;;;;;;23.84;46.72;99605.00;4869207;28;97278;-81
2022/09/13 11:08:45;;;;;;;4.50;2.33;;;;;;;23.72;46.30;99599.03;4842413;28;101183;-81
2022/09/13 11:11:47;;;;;;;8.15;2.20;;;;;;;23.52;47.74;99600.16;4794108;28;101223;-78
2022/09/13 11:14:31;;;;;;;8.02;2.63;;;;;;;23.66;47.16;99610.34;4841558;28;97528;-80
2022/09/13 11:17:28;;;;;;;7.30;3.35;;;;;;;23.62;47.86;99606.28;4835388;28;97217;-79
2022/09/13 11:20:06;;;;;;;6.50;2.65;;;;;;;23.69;47.02;99604.69;4868952;28;98180;-79
2022/09/13 11:23:02;;;;;;;4.53;2.85;;;;;;;23.54;47.95;99598.19;4842479;28;100799;-78
2022/09/13 11:25:49;;;;;;;4.78;2.45;;;;;;;23.61;47.40;99594.72;4870701;28;97044;-76
2022/09/13 11:28:47;;;;;;;8.57;4.15;;;;;;;23.80;48.20;99607.16;4838594;28;97008;-76
2022/09/13 11:31:31;;;;;;;6.57;3.17;;;;;;;23.82;47.87;99598.94;4855406;28;101510;-79
2022/09/13 11:34:03;;;;;;;4.05;3.15;;;;;;;23.80;47.93;99596.44;4866205;28;101571;-76
2022/09/13 11:36:49;;;;;;;6.25;2.67;;;;;;;23.76;48.01;99573.59;4855061;28;97370;-75
2022/09/13 11:39:18;;;;;;;3.42;2.30;;;;;;;23.80;47.39;99590.25;4857681;28;96987;-76
2022/09/13 11:42:05;;;;;;;6.50;2.95;;;;;;;23.71;48.30;99579.44;4858033;28;101904;-80
2022/09/13 11:44:37;;;;;;;4.10;2.63;;;;;;;23.93;48.17;99574.59;4848771;28;102963;-78
2022/09/13 11:47:37;;;;;;;9.05;2.85;;;;;;;23.98;48.24;99577.66;4873800;28;97171;-80
2022/09/13 11:50:18;;;;;;;3.88;2.17;;;;;;;24.07;47.91;99573.19;4821710;28;97453;-80
2022/09/13 11:53:05;;;;;;;2.90;2.30;;;;;;;24.18;48.04;99572.94;4833323;28;101880;-79